Air Quality Table

TIMESTAMP NO2 SO2 O3 PM10 PM2.5 CO TEMP HUM WS WD NO
2021-08-02 17:00 1.99 ug/m3 1.22 ug/m3 119.88 ug/m3 26.14 ug/m3 9.82 ug/m3 0.18 mg/m3 30.37 C 64.15 % 2.8 m/s 254 Deg 0.13 ug/m3
2021-08-02 09:00 4.72 ug/m3 0.58 ug/m3 94.07 ug/m3 26.19 ug/m3 8.44 ug/m3 0.16 mg/m3 28.41 C 73.3 % 2.47 m/s 176.28 Deg 0.34 ug/m3
2021-08-02 01:00 3.73 ug/m3 0.66 ug/m3 90.36 ug/m3 27.77 ug/m3 9.04 ug/m3 0.15 mg/m3 29.29 C 63.07 % 2.37 m/s 107.63 Deg -0.01 ug/m3
2021-08-01 17:00 2.66 ug/m3 0.93 ug/m3 102.16 ug/m3 33.69 ug/m3 10.58 ug/m3 0.16 mg/m3 32.18 C 45.8 % 3.75 m/s 230.46 Deg 0.08 ug/m3
2021-08-01 09:00 3.49 ug/m3 0.66 ug/m3 95.29 ug/m3 31.86 ug/m3 10.82 ug/m3 0.15 mg/m3 30.3 C 55.79 % 2.84 m/s 171.97 Deg 0.08 ug/m3
2021-08-01 01:00 2.97 ug/m3 0.66 ug/m3 97.17 ug/m3 32.06 ug/m3 10.21 ug/m3 0.17 mg/m3 29.02 C 67.6 % 1.75 m/s 168.06 Deg -0 ug/m3
2021-07-31 17:00 0.81 ug/m3 0.88 ug/m3 107.2 ug/m3 27.66 ug/m3 9.62 ug/m3 0.17 mg/m3 30.45 C 64.65 % 2.58 m/s 242.28 Deg 0.09 ug/m3
2021-07-31 09:00 0.64 ug/m3 0.25 ug/m3 101.01 ug/m3 21.2 ug/m3 9.17 ug/m3 0.17 mg/m3 26.71 C 85.07 % 3.41 m/s 225.92 Deg 0.02 ug/m3
2021-07-31 01:00 0.93 ug/m3 0.82 ug/m3 101.45 ug/m3 19.63 ug/m3 7.36 ug/m3 0.16 mg/m3 28.38 C 64.62 % 4.54 m/s 209.79 Deg -0.01 ug/m3
2021-07-30 17:00 0.53 ug/m3 0.98 ug/m3 101.37 ug/m3 12.27 ug/m3 5.79 ug/m3 0.16 mg/m3 28.7 C 68.35 % 4.44 m/s 215.25 Deg 0.05 ug/m3
2021-07-30 09:00 2.58 ug/m3 1.15 ug/m3 106.07 ug/m3 9.98 ug/m3 5.25 ug/m3 0.15 mg/m3 27.41 C 62.21 % 2.4 m/s 240.63 Deg 0.2 ug/m3
2021-07-30 01:00 0.4 ug/m3 1.33 ug/m3 108.95 ug/m3 9.33 ug/m3 4.98 ug/m3 0.15 mg/m3 28.07 C 55.13 % 2.63 m/s 287.45 Deg -0.01 ug/m3
2021-07-29 17:00 0.3 ug/m3 0.49 ug/m3 105.65 ug/m3 7.98 ug/m3 5.28 ug/m3 0.16 mg/m3 28.36 C 67.03 % 4.79 m/s 304.75 Deg 0.04 ug/m3
2021-07-29 09:00 6.9 ug/m3 1.18 ug/m3 103.14 ug/m3 8.04 ug/m3 5.51 ug/m3 0.16 mg/m3 27.25 C 57.91 % 3.11 m/s 321.1 Deg 0.08 ug/m3
2021-07-29 01:00 3.66 ug/m3 0.43 ug/m3 100.94 ug/m3 9.27 ug/m3 5.83 ug/m3 0.16 mg/m3 26.44 C 74.34 % 2.72 m/s 296.15 Deg 0.02 ug/m3
2021-07-28 17:00 10.41 ug/m3 1.26 ug/m3 112.59 ug/m3 17.57 ug/m3 6.35 ug/m3 0.16 mg/m3 28.36 C 53.76 % 3.63 m/s 322.35 Deg 2.22 ug/m3
2021-07-28 09:00 6.27 ug/m3 0.71 ug/m3 97.47 ug/m3 6.51 ug/m3 5.64 ug/m3 0.15 mg/m3 25.69 C 77.73 % 2.32 m/s 334.7 Deg 0.41 ug/m3
2021-07-28 01:00 0.87 ug/m3 0.79 ug/m3 128.43 ug/m3 6.11 ug/m3 5.14 ug/m3 0.15 mg/m3 27.59 C 48.39 % 1.26 m/s 183.36 Deg -0.02 ug/m3
2021-07-27 17:00 0.4 ug/m3 0.49 ug/m3 112.23 ug/m3 8.15 ug/m3 5.83 ug/m3 0.16 mg/m3 27.64 C 72.18 % 2.87 m/s 209.28 Deg 0.07 ug/m3
2021-07-27 09:00 3.7 ug/m3 0.26 ug/m3 93.29 ug/m3 10.88 ug/m3 7 ug/m3 0.18 mg/m3 24.99 C 86.69 % 1.55 m/s 141.97 Deg 0.27 ug/m3

It is to be noted that the data is provisional and subject to quality assurance procedures. For validated data kindly refer your request to contact.air@era.org.mt